Time;durP1;ratioP1;P1;durP2;ratioP2;P2;SDS_P1;SDS_P2;PMS_P1;PMS_P2;Temp;Humidity;BMP_temperature;BMP_pressure;BME280_temperature;BME280_humidity;BME280_pressure;Samples;Min_cycle;Max_cycle;Signal;HPM_P1;HPM_P2
2021/12/15 00:00:06;;;;;;;1.03;0.60;;;;;;;;;;5014242;28;20636;-77
2021/12/15 00:02:35;;;;;;;3.40;1.80;;;;;;;;;;5015863;28;20201;-77
2021/12/15 00:05:05;;;;;;;1.50;1.00;;;;;;;;;;5006874;28;20204;-76
2021/12/15 00:07:34;;;;;;;1.20;0.63;;;;;;;;;;5014842;28;20701;-74
2021/12/15 00:10:03;;;;;;;2.30;1.50;;;;;;;;;;5011415;28;20216;-72
2021/12/15 00:12:33;;;;;;;2.70;1.07;;;;;;;;;;5000837;28;20236;-73
2021/12/15 00:15:01;;;;;;;2.30;0.83;;;;;;;;;;5004895;28;20649;-76
2021/12/15 00:17:30;;;;;;;2.33;1.07;;;;;;;;;;5014523;28;20271;-73
2021/12/15 00:19:58;;;;;;;1.93;0.77;;;;;;;;;;5015004;28;20279;-74
2021/12/15 00:22:27;;;;;;;3.43;1.10;;;;;;;;;;5014695;28;20583;-74
2021/12/15 00:24:55;;;;;;;1.07;0.63;;;;;;;;;;5016436;28;20208;-73
2021/12/15 00:27:24;;;;;;;0.77;0.53;;;;;;;;;;5013047;28;20216;-75
2021/12/15 00:29:54;;;;;;;0.57;0.40;;;;;;;;;;5014412;28;20208;-72
2021/12/15 00:32:23;;;;;;;1.30;0.20;;;;;;;;;;5015589;28;20228;-74
2021/12/15 00:34:51;;;;;;;0.00;0.00;;;;;;;;;;5014127;28;20205;-76
2021/12/15 00:37:20;;;;;;;0.00;0.00;;;;;;;;;;5013895;28;20353;-72
2021/12/15 00:39:48;;;;;;;0.00;0.00;;;;;;;;;;5016061;28;20212;-72
2021/12/15 00:42:18;;;;;;;3.87;2.17;;;;;;;;;;5013997;28;20601;-73
2021/12/15 00:44:47;;;;;;;4.13;1.90;;;;;;;;;;5014153;28;20209;-73
2021/12/15 00:47:17;;;;;;;4.03;1.90;;;;;;;;;;5013144;28;20217;-76
2021/12/15 00:49:46;;;;;;;3.60;2.00;;;;;;;;;;5014646;28;20205;-73
2021/12/15 00:52:14;;;;;;;4.03;2.17;;;;;;;;;;5013654;28;20204;-73
2021/12/15 00:54:43;;;;;;;1.03;0.40;;;;;;;;;;4996287;28;20661;-73
2021/12/15 00:57:11;;;;;;;0.77;0.33;;;;;;;;;;5004204;28;20622;-77
2021/12/15 00:59:40;;;;;;;3.40;1.17;;;;;;;;;;4996096;28;20688;-75
2021/12/15 01:02:09;;;;;;;2.53;0.67;;;;;;;;;;5013732;28;20259;-74
2021/12/15 01:04:40;;;;;;;3.20;1.60;;;;;;;;;;5011488;28;20223;-75
2021/12/15 01:07:09;;;;;;;1.03;0.47;;;;;;;;;;5013456;28;20228;-75
2021/12/15 01:09:42;;;;;;;0.30;0.30;;;;;;;;;;5002382;28;20203;-77
2021/12/15 01:12:20;;;;;;;0.87;0.73;;;;;;;;;;5012822;28;20328;-74
2021/12/15 01:20:29;;;;;;;1.43;0.63;;;;;;;;;;5014011;28;20648;-74
2021/12/15 01:23:01;;;;;;;1.50;0.83;;;;;;;;;;5011157;28;20204;-77
2021/12/15 01:25:31;;;;;;;3.40;0.83;;;;;;;;;;5015371;28;20247;-73
2021/12/15 01:28:00;;;;;;;1.67;0.93;;;;;;;;;;5013603;28;20676;-73
2021/12/15 01:30:30;;;;;;;2.13;0.97;;;;;;;;;;5014822;28;20286;-76
2021/12/15 01:32:59;;;;;;;0.10;0.10;;;;;;;;;;5012245;28;20590;-72
2021/12/15 01:35:29;;;;;;;1.43;0.77;;;;;;;;;;5012790;28;20204;-76
2021/12/15 01:37:58;;;;;;;2.23;1.13;;;;;;;;;;5013663;28;20275;-73
2021/12/15 01:40:33;;;;;;;0.47;0.27;;;;;;;;;;5012698;28;20955;-75
2021/12/15 01:43:04;;;;;;;2.33;0.93;;;;;;;;;;5004807;28;20212;-72
2021/12/15 01:48:19;;;;;;;0.00;0.00;;;;;;;;;;5013396;28;20228;-74
2021/12/15 01:50:50;;;;;;;0.87;0.40;;;;;;;;;;5011359;28;20205;-72
2021/12/15 01:53:19;;;;;;;2.70;1.00;;;;;;;;;;5014997;28;20215;-77
2021/12/15 01:55:49;;;;;;;1.30;0.53;;;;;;;;;;5011512;28;20622;-74
2021/12/15 01:58:17;;;;;;;1.60;0.77;;;;;;;;;;5012755;28;20223;-74
2021/12/15 02:00:47;;;;;;;2.77;1.40;;;;;;;;;;5011494;28;20225;-73
2021/12/15 02:03:16;;;;;;;2.37;1.30;;;;;;;;;;5010870;28;20215;-74
2021/12/15 02:05:45;;;;;;;1.60;0.60;;;;;;;;;;5012109;28;20255;-73
2021/12/15 02:08:15;;;;;;;3.80;1.80;;;;;;;;;;5013311;28;20228;-73
2021/12/15 02:10:44;;;;;;;1.70;0.93;;;;;;;;;;5011712;28;20216;-74
2021/12/15 02:13:14;;;;;;;2.83;1.30;;;;;;;;;;5011117;28;20609;-76
2021/12/15 02:15:45;;;;;;;2.73;1.33;;;;;;;;;;5014391;28;20657;-76
2021/12/15 02:18:17;;;;;;;2.93;1.30;;;;;;;;;;5011555;28;20220;-73
2021/12/15 02:20:48;;;;;;;2.57;1.07;;;;;;;;;;5012695;28;20621;-74
2021/12/15 02:23:18;;;;;;;2.57;1.70;;;;;;;;;;5007445;28;20204;-76
2021/12/15 02:25:46;;;;;;;3.80;2.27;;;;;;;;;;5014078;28;20551;-72
2021/12/15 02:28:15;;;;;;;3.30;1.70;;;;;;;;;;5011728;28;20228;-75
2021/12/15 02:30:52;;;;;;;3.03;1.80;;;;;;;;;;5013104;28;20223;-72
2021/12/15 02:33:45;;;;;;;4.43;2.03;;;;;;;;;;5009377;28;20593;-76
2021/12/15 02:39:05;;;;;;;3.30;2.00;;;;;;;;;;5013642;28;20552;-74
2021/12/15 02:41:34;;;;;;;5.00;2.67;;;;;;;;;;5009179;28;20208;-74
2021/12/15 02:44:04;;;;;;;4.70;2.43;;;;;;;;;;5007509;28;20200;-76
2021/12/15 02:46:34;;;;;;;3.03;1.80;;;;;;;;;;5005978;28;20224;-73
2021/12/15 02:49:04;;;;;;;3.70;2.07;;;;;;;;;;5007910;28;20227;-73
2021/12/15 02:51:34;;;;;;;6.67;3.60;;;;;;;;;;5003728;28;20201;-75
2021/12/15 02:54:03;;;;;;;4.63;2.70;;;;;;;;;;5007671;28;20636;-75
2021/12/15 02:56:31;;;;;;;5.43;2.33;;;;;;;;;;5011051;28;20224;-73
2021/12/15 02:59:03;;;;;;;4.90;2.47;;;;;;;;;;5010085;28;20742;-71
2021/12/15 03:01:38;;;;;;;5.20;2.47;;;;;;;;;;5011291;28;20205;-72
2021/12/15 03:04:26;;;;;;;5.63;2.67;;;;;;;;;;5010396;28;20208;-72
2021/12/15 03:07:01;;;;;;;3.20;2.23;;;;;;;;;;5013593;28;20235;-76
2021/12/15 03:15:29;;;;;;;5.93;2.93;;;;;;;;;;5004649;28;20208;-73
2021/12/15 03:17:59;;;;;;;4.13;2.40;;;;;;;;;;5010478;28;20228;-74
2021/12/15 03:20:28;;;;;;;3.00;1.90;;;;;;;;;;5012495;28;20227;-73
2021/12/15 03:22:58;;;;;;;2.03;0.93;;;;;;;;;;5009321;28;20209;-76
2021/12/15 03:25:30;;;;;;;2.23;1.40;;;;;;;;;;5013331;28;20201;-76
2021/12/15 03:33:39;;;;;;;0.73;0.63;;;;;;;;;;5007845;28;20200;-72
2021/12/15 03:36:23;;;;;;;3.70;2.10;;;;;;;;;;5012951;28;20266;-75
2021/12/15 03:38:53;;;;;;;0.00;0.00;;;;;;;;;;5010119;28;20204;-73
2021/12/15 03:41:23;;;;;;;2.10;1.30;;;;;;;;;;5010820;28;20618;-73
2021/12/15 03:43:51;;;;;;;1.10;0.73;;;;;;;;;;5010748;28;20208;-75
2021/12/15 03:46:20;;;;;;;4.33;2.33;;;;;;;;;;5011159;28;20653;-76
2021/12/15 03:48:49;;;;;;;1.50;0.93;;;;;;;;;;5010963;28;20311;-74
2021/12/15 03:51:18;;;;;;;1.13;0.77;;;;;;;;;;5009682;28;20288;-73
2021/12/15 03:53:46;;;;;;;3.40;1.80;;;;;;;;;;5010381;28;20664;-72
2021/12/15 03:56:17;;;;;;;3.50;2.00;;;;;;;;;;5012811;28;20204;-76
2021/12/15 03:58:46;;;;;;;0.73;0.23;;;;;;;;;;5012955;28;20208;-74
2021/12/15 04:01:17;;;;;;;1.93;0.93;;;;;;;;;;5011881;28;20200;-76
2021/12/15 04:03:46;;;;;;;1.10;0.57;;;;;;;;;;5010904;28;20200;-73
2021/12/15 04:06:16;;;;;;;1.80;1.23;;;;;;;;;;5010273;28;20205;-74
2021/12/15 04:08:45;;;;;;;3.30;1.60;;;;;;;;;;5013223;28;20204;-74
2021/12/15 04:11:15;;;;;;;1.30;0.87;;;;;;;;;;5012358;28;20217;-73
2021/12/15 04:13:47;;;;;;;0.83;0.57;;;;;;;;;;5011819;28;20660;-73
2021/12/15 04:16:39;;;;;;;0.00;0.00;;;;;;;;;;5011688;28;20208;-76
2021/12/15 04:19:06;;;;;;;0.20;0.10;;;;;;;;;;5012754;28;20244;-74
2021/12/15 04:21:35;;;;;;;1.80;0.87;;;;;;;;;;5013068;28;20208;-73
2021/12/15 04:24:04;;;;;;;2.10;1.20;;;;;;;;;;5014313;28;20201;-74
2021/12/15 04:26:33;;;;;;;0.10;0.10;;;;;;;;;;5015252;28;20220;-74
2021/12/15 04:29:03;;;;;;;0.00;0.00;;;;;;;;;;5014112;28;20267;-74
2021/12/15 04:31:33;;;;;;;0.00;0.00;;;;;;;;;;5013573;28;20209;-73
2021/12/15 04:34:03;;;;;;;0.00;0.00;;;;;;;;;;5012676;28;20204;-77
2021/12/15 04:36:34;;;;;;;0.00;0.00;;;;;;;;;;5016092;28;20704;-76
2021/12/15 04:39:03;;;;;;;0.00;0.00;;;;;;;;;;5014635;28;20204;-74
2021/12/15 04:41:32;;;;;;;1.83;0.73;;;;;;;;;;5015935;28;20613;-75
2021/12/15 04:44:10;;;;;;;1.50;0.97;;;;;;;;;;5011800;28;20253;-75
2021/12/15 04:46:40;;;;;;;1.27;0.73;;;;;;;;;;5015503;28;20220;-75
2021/12/15 04:49:10;;;;;;;0.00;0.00;;;;;;;;;;5013934;28;20292;-74
2021/12/15 04:51:39;;;;;;;0.00;0.00;;;;;;;;;;5016104;28;20603;-75
2021/12/15 04:54:08;;;;;;;1.20;0.73;;;;;;;;;;5014366;28;20204;-76
2021/12/15 04:56:37;;;;;;;1.33;0.77;;;;;;;;;;5013922;28;20271;-73
2021/12/15 04:59:06;;;;;;;0.30;0.20;;;;;;;;;;5014680;28;20208;-75
2021/12/15 05:01:35;;;;;;;0.10;0.10;;;;;;;;;;5012278;28;20201;-74
2021/12/15 05:04:04;;;;;;;0.00;0.00;;;;;;;;;;5013861;28;20208;-74
2021/12/15 05:06:32;;;;;;;1.10;0.63;;;;;;;;;;5013567;28;20270;-76
2021/12/15 05:09:01;;;;;;;0.37;0.30;;;;;;;;;;5012916;28;20262;-72
2021/12/15 05:11:29;;;;;;;0.90;0.57;;;;;;;;;;5014073;28;20228;-75
2021/12/15 05:13:57;;;;;;;0.30;0.20;;;;;;;;;;5014530;28;20620;-76
2021/12/15 05:16:27;;;;;;;1.13;0.53;;;;;;;;;;5013446;28;20645;-73
2021/12/15 05:18:56;;;;;;;6.70;3.20;;;;;;;;;;5011606;28;20201;-73
2021/12/15 05:21:25;;;;;;;4.13;1.80;;;;;;;;;;5014366;28;20201;-73
2021/12/15 05:23:57;;;;;;;3.70;2.10;;;;;;;;;;5013780;28;20605;-74
2021/12/15 05:26:26;;;;;;;1.13;0.53;;;;;;;;;;5015087;28;20262;-72
2021/12/15 05:28:54;;;;;;;5.30;2.13;;;;;;;;;;5013188;28;20212;-74
2021/12/15 05:31:22;;;;;;;2.23;1.33;;;;;;;;;;5014246;28;20232;-74
2021/12/15 05:33:52;;;;;;;4.90;2.10;;;;;;;;;;5011506;28;20213;-73
2021/12/15 05:36:21;;;;;;;5.20;1.60;;;;;;;;;;5015108;28;20209;-75
2021/12/15 05:38:49;;;;;;;11.03;5.10;;;;;;;;;;5013639;28;20227;-75
2021/12/15 05:41:18;;;;;;;1.30;0.57;;;;;;;;;;5014065;28;20201;-75
2021/12/15 05:43:47;;;;;;;6.93;3.40;;;;;;;;;;5009450;28;20266;-72
2021/12/15 05:46:15;;;;;;;2.00;1.00;;;;;;;;;;5014810;28;20205;-76
2021/12/15 05:48:44;;;;;;;2.73;1.20;;;;;;;;;;5010379;28;20640;-75
2021/12/15 05:51:14;;;;;;;6.13;3.10;;;;;;;;;;5010170;28;20232;-72
2021/12/15 05:53:43;;;;;;;7.53;4.03;;;;;;;;;;5014738;28;20612;-75
2021/12/15 05:56:13;;;;;;;4.60;2.30;;;;;;;;;;4993670;28;20286;-76
2021/12/15 05:58:42;;;;;;;1.50;0.57;;;;;;;;;;5011799;28;20204;-73
2021/12/15 06:01:10;;;;;;;2.53;1.30;;;;;;;;;;5012778;28;20193;-72
2021/12/15 06:03:39;;;;;;;1.33;0.63;;;;;;;;;;5011506;28;20200;-76
2021/12/15 06:06:08;;;;;;;2.47;0.87;;;;;;;;;;5012361;28;20239;-74
2021/12/15 06:08:38;;;;;;;5.93;2.83;;;;;;;;;;5010928;28;20266;-75
2021/12/15 06:11:06;;;;;;;4.43;2.17;;;;;;;;;;5006176;28;20271;-73
2021/12/15 06:13:35;;;;;;;5.43;2.33;;;;;;;;;;5013619;28;20208;-72
2021/12/15 06:16:04;;;;;;;5.97;2.37;;;;;;;;;;5012506;28;20204;-75
2021/12/15 06:18:35;;;;;;;4.00;2.10;;;;;;;;;;5010521;28;20656;-76
2021/12/15 06:21:03;;;;;;;2.90;0.93;;;;;;;;;;5009122;28;20251;-74
2021/12/15 06:23:32;;;;;;;1.10;0.50;;;;;;;;;;5014298;28;20215;-73
2021/12/15 06:26:03;;;;;;;2.73;0.90;;;;;;;;;;5013489;28;20208;-73
2021/12/15 06:28:34;;;;;;;0.87;0.67;;;;;;;;;;5008149;28;20211;-74
2021/12/15 06:31:03;;;;;;;3.80;1.80;;;;;;;;;;5012892;28;20228;-73
2021/12/15 06:33:31;;;;;;;2.13;1.20;;;;;;;;;;5013514;28;20640;-73
2021/12/15 06:36:01;;;;;;;0.00;0.00;;;;;;;;;;5013483;28;20204;-75
2021/12/15 06:38:30;;;;;;;3.40;1.00;;;;;;;;;;5013015;28;20204;-76
2021/12/15 06:41:00;;;;;;;1.17;0.23;;;;;;;;;;5013752;28;20201;-71
2021/12/15 06:43:29;;;;;;;1.40;0.67;;;;;;;;;;5013440;28;20216;-74
2021/12/15 06:46:14;;;;;;;0.83;0.73;;;;;;;;;;5013780;28;20201;-73
2021/12/15 06:57:33;;;;;;;12.13;5.63;;;;;;;;;;5013862;28;20781;-75
2021/12/15 07:00:06;;;;;;;10.63;5.30;;;;;;;;;;5014252;28;20204;-73
2021/12/15 07:02:35;;;;;;;2.00;1.10;;;;;;;;;;5013308;28;20192;-74
2021/12/15 07:05:04;;;;;;;2.53;1.50;;;;;;;;;;5011638;28;20656;-77
2021/12/15 07:07:32;;;;;;;0.73;0.50;;;;;;;;;;5011248;28;20227;-72
2021/12/15 07:10:00;;;;;;;0.10;0.10;;;;;;;;;;5013686;28;20282;-76
2021/12/15 07:12:30;;;;;;;1.70;0.57;;;;;;;;;;5013896;28;20213;-74
2021/12/15 07:14:58;;;;;;;3.30;1.50;;;;;;;;;;5012903;28;20203;-74
2021/12/15 07:17:29;;;;;;;1.70;0.73;;;;;;;;;;5011295;28;20805;-73
2021/12/15 07:20:07;;;;;;;3.93;1.90;;;;;;;;;;5009020;28;20193;-73
2021/12/15 07:22:43;;;;;;;1.80;0.63;;;;;;;;;;5009895;28;20635;-76
2021/12/15 07:25:13;;;;;;;0.00;0.00;;;;;;;;;;5013400;28;20196;-75
2021/12/15 07:27:42;;;;;;;0.00;0.00;;;;;;;;;;5013161;28;20231;-75
2021/12/15 07:30:11;;;;;;;0.00;0.00;;;;;;;;;;5012693;28;20235;-72
2021/12/15 07:32:41;;;;;;;0.00;0.00;;;;;;;;;;5013028;28;20232;-74
2021/12/15 07:35:10;;;;;;;0.00;0.00;;;;;;;;;;5013563;28;20216;-76
2021/12/15 07:37:38;;;;;;;0.00;0.00;;;;;;;;;;5012683;28;20228;-74
2021/12/15 07:40:11;;;;;;;0.00;0.00;;;;;;;;;;5013048;28;20254;-72
2021/12/15 07:42:53;;;;;;;0.00;0.00;;;;;;;;;;5013334;28;20208;-75
2021/12/15 07:45:23;;;;;;;0.00;0.00;;;;;;;;;;5013424;28;20270;-73
2021/12/15 07:47:53;;;;;;;0.00;0.00;;;;;;;;;;5013059;28;20220;-71
2021/12/15 07:50:22;;;;;;;0.00;0.00;;;;;;;;;;5013163;28;20270;-77
2021/12/15 07:52:52;;;;;;;0.00;0.00;;;;;;;;;;5013336;28;20227;-74
2021/12/15 07:55:21;;;;;;;0.00;0.00;;;;;;;;;;5016647;28;20626;-74
2021/12/15 07:57:50;;;;;;;0.00;0.00;;;;;;;;;;5016254;28;20278;-75
2021/12/15 08:00:19;;;;;;;0.00;0.00;;;;;;;;;;5001905;28;20204;-75
2021/12/15 08:02:48;;;;;;;0.00;0.00;;;;;;;;;;5016664;28;20656;-74
2021/12/15 08:05:18;;;;;;;0.00;0.00;;;;;;;;;;5016506;28;20200;-75
2021/12/15 08:07:46;;;;;;;0.00;0.00;;;;;;;;;;5015593;28;20228;-72
2021/12/15 08:10:15;;;;;;;0.00;0.00;;;;;;;;;;5016739;28;20220;-76
2021/12/15 08:12:44;;;;;;;0.00;0.00;;;;;;;;;;5016448;28;20224;-76
2021/12/15 08:15:13;;;;;;;0.00;0.00;;;;;;;;;;5016802;28;20208;-73
2021/12/15 08:17:42;;;;;;;0.00;0.00;;;;;;;;;;5015966;28;20239;-74
2021/12/15 08:20:13;;;;;;;0.00;0.00;;;;;;;;;;5015956;28;20258;-74
2021/12/15 08:22:43;;;;;;;0.00;0.00;;;;;;;;;;5014589;28;20587;-74
2021/12/15 08:25:13;;;;;;;0.00;0.00;;;;;;;;;;5016639;28;20208;-71
2021/12/15 08:27:42;;;;;;;0.00;0.00;;;;;;;;;;5014919;28;20220;-74
2021/12/15 08:30:12;;;;;;;0.00;0.00;;;;;;;;;;5016064;28;20722;-75
2021/12/15 08:32:41;;;;;;;0.00;0.00;;;;;;;;;;5016766;28;20221;-76
2021/12/15 08:35:10;;;;;;;0.00;0.00;;;;;;;;;;5016681;28;20288;-73
2021/12/15 08:37:39;;;;;;;0.00;0.00;;;;;;;;;;5016241;28;20224;-76
2021/12/15 08:40:10;;;;;;;0.00;0.00;;;;;;;;;;5015925;28;20204;-75
2021/12/15 08:42:39;;;;;;;0.00;0.00;;;;;;;;;;5016177;28;20660;-72
2021/12/15 08:45:09;;;;;;;0.00;0.00;;;;;;;;;;5016621;28;20196;-72
2021/12/15 08:47:38;;;;;;;0.00;0.00;;;;;;;;;;5016212;28;20271;-76
2021/12/15 08:50:08;;;;;;;0.00;0.00;;;;;;;;;;5015981;28;20255;-72
2021/12/15 08:52:38;;;;;;;0.00;0.00;;;;;;;;;;5015991;28;20274;-72
2021/12/15 08:55:10;;;;;;;0.00;0.00;;;;;;;;;;5016026;28;20197;-75
2021/12/15 08:57:46;;;;;;;0.00;0.00;;;;;;;;;;5015785;28;20227;-73
2021/12/15 09:00:17;;;;;;;0.00;0.00;;;;;;;;;;5016000;28;20219;-75
2021/12/15 09:02:46;;;;;;;0.00;0.00;;;;;;;;;;5016141;28;20200;-74
2021/12/15 09:05:20;;;;;;;0.00;0.00;;;;;;;;;;5015769;28;20211;-72
2021/12/15 09:07:50;;;;;;;0.00;0.00;;;;;;;;;;5015643;28;20236;-77
2021/12/15 09:10:22;;;;;;;0.00;0.00;;;;;;;;;;5015590;28;20211;-71
2021/12/15 09:12:51;;;;;;;0.00;0.00;;;;;;;;;;5015944;28;20220;-73
2021/12/15 09:15:19;;;;;;;0.00;0.00;;;;;;;;;;5015941;28;20212;-74
2021/12/15 09:17:48;;;;;;;0.00;0.00;;;;;;;;;;5015413;28;20745;-77
2021/12/15 09:20:19;;;;;;;0.00;0.00;;;;;;;;;;5015517;28;20208;-74
2021/12/15 09:22:47;;;;;;;0.00;0.00;;;;;;;;;;5032307;28;20196;-74
2021/12/15 09:25:17;;;;;;;0.00;0.00;;;;;;;;;;5018976;28;20212;-75
2021/12/15 09:27:47;;;;;;;0.00;0.00;;;;;;;;;;5014476;28;20817;-72
2021/12/15 09:30:18;;;;;;;0.00;0.00;;;;;;;;;;5012565;28;20216;-71
2021/12/15 09:32:47;;;;;;;0.00;0.00;;;;;;;;;;5012287;28;20259;-74
2021/12/15 09:35:17;;;;;;;0.00;0.00;;;;;;;;;;5011320;28;20270;-72
2021/12/15 09:37:46;;;;;;;0.60;0.10;;;;;;;;;;5011608;28;20232;-74
2021/12/15 09:40:17;;;;;;;0.00;0.00;;;;;;;;;;5011100;28;20714;-77
2021/12/15 09:42:48;;;;;;;0.00;0.00;;;;;;;;;;5011397;28;20664;-76
2021/12/15 09:45:37;;;;;;;0.00;0.00;;;;;;;;;;5012022;28;20197;-75
2021/12/15 09:56:23;;;;;;;0.00;0.00;;;;;;;;;;5010984;28;20491;-77
2021/12/15 10:02:57;;;;;;;0.00;0.00;;;;;;;;;;5010477;28;20536;-72
2021/12/15 10:05:48;;;;;;;0.00;0.00;;;;;;;;;;5000421;28;20731;-76
2021/12/15 10:11:32;;;;;;;0.67;0.40;;;;;;;;;;5012521;28;20262;-75
2021/12/15 10:19:43;;;;;;;0.00;0.00;;;;;;;;;;5013538;28;20200;-71
2021/12/15 10:22:16;;;;;;;0.00;0.00;;;;;;;;;;5013447;28;20251;-76
2021/12/15 10:24:50;;;;;;;0.00;0.00;;;;;;;;;;5009978;28;20719;-74
2021/12/15 10:27:20;;;;;;;0.00;0.00;;;;;;;;;;5012680;28;20216;-72
2021/12/15 10:30:02;;;;;;;0.00;0.00;;;;;;;;;;5013769;28;20200;-74
2021/12/15 10:32:34;;;;;;;0.00;0.00;;;;;;;;;;5013411;28;20217;-74
2021/12/15 10:35:05;;;;;;;0.00;0.00;;;;;;;;;;5013671;28;20201;-74
2021/12/15 10:37:33;;;;;;;0.00;0.00;;;;;;;;;;5013326;28;20595;-74
2021/12/15 10:40:14;;;;;;;0.00;0.00;;;;;;;;;;5013656;28;20689;-74
2021/12/15 10:42:42;;;;;;;0.00;0.00;;;;;;;;;;5012964;28;20188;-77
2021/12/15 10:45:12;;;;;;;0.00;0.00;;;;;;;;;;5013847;28;20242;-70
2021/12/15 10:47:43;;;;;;;0.00;0.00;;;;;;;;;;5012699;28;20566;-72
2021/12/15 10:50:17;;;;;;;0.00;0.00;;;;;;;;;;5013569;28;20213;-72
2021/12/15 10:52:53;;;;;;;0.00;0.00;;;;;;;;;;5012883;28;20213;-75
2021/12/15 10:55:22;;;;;;;0.00;0.00;;;;;;;;;;5013142;28;20255;-76
2021/12/15 10:57:50;;;;;;;0.00;0.00;;;;;;;;;;5012769;28;20216;-73
2021/12/15 11:00:20;;;;;;;0.00;0.00;;;;;;;;;;5007452;28;20212;-74
2021/12/15 11:02:50;;;;;;;0.00;0.00;;;;;;;;;;5012756;28;20192;-74
2021/12/15 11:05:20;;;;;;;0.00;0.00;;;;;;;;;;5013084;28;20207;-75
2021/12/15 11:07:50;;;;;;;0.00;0.00;;;;;;;;;;5003067;28;20262;-74
2021/12/15 11:10:24;;;;;;;0.00;0.00;;;;;;;;;;5012761;28;20211;-76
2021/12/15 11:12:57;;;;;;;0.00;0.00;;;;;;;;;;5012640;28;20263;-74
2021/12/15 11:15:27;;;;;;;0.13;0.03;;;;;;;;;;5012856;28;20207;-74
2021/12/15 11:18:00;;;;;;;0.00;0.00;;;;;;;;;;5012985;28;20229;-73
2021/12/15 11:20:30;;;;;;;0.00;0.00;;;;;;;;;;5012741;28;20208;-75
2021/12/15 11:23:01;;;;;;;0.00;0.00;;;;;;;;;;5012648;28;20197;-72
2021/12/15 11:25:41;;;;;;;0.00;0.00;;;;;;;;;;5012822;28;20258;-76
2021/12/15 11:28:11;;;;;;;0.00;0.00;;;;;;;;;;5011880;28;20220;-73
2021/12/15 11:30:42;;;;;;;0.00;0.00;;;;;;;;;;5012017;28;20652;-75
2021/12/15 11:33:12;;;;;;;0.00;0.00;;;;;;;;;;5012625;28;20248;-75
2021/12/15 11:35:43;;;;;;;0.00;0.00;;;;;;;;;;5012632;28;20204;-72
2021/12/15 11:38:14;;;;;;;0.00;0.00;;;;;;;;;;5012561;28;20228;-74
2021/12/15 11:40:44;;;;;;;0.00;0.00;;;;;;;;;;5012352;28;20263;-75
2021/12/15 11:43:27;;;;;;;0.00;0.00;;;;;;;;;;5012961;28;20193;-75
2021/12/15 11:45:55;;;;;;;0.00;0.00;;;;;;;;;;5012758;28;20200;-73
2021/12/15 11:48:26;;;;;;;0.00;0.00;;;;;;;;;;5012193;28;20212;-75
2021/12/15 11:50:56;;;;;;;0.00;0.00;;;;;;;;;;5012135;28;20217;-75
2021/12/15 11:53:32;;;;;;;0.00;0.00;;;;;;;;;;5011848;28;20219;-74
2021/12/15 11:56:16;;;;;;;0.00;0.00;;;;;;;;;;5012576;28;20200;-71
2021/12/15 11:58:45;;;;;;;0.00;0.00;;;;;;;;;;5012319;28;20258;-72
2021/12/15 12:01:28;;;;;;;0.00;0.00;;;;;;;;;;5012638;28;20203;-75
2021/12/15 12:04:11;;;;;;;0.00;0.00;;;;;;;;;;5011921;28;20243;-74
2021/12/15 12:06:39;;;;;;;0.00;0.00;;;;;;;;;;5009226;28;20225;-72
2021/12/15 12:09:08;;;;;;;0.30;0.20;;;;;;;;;;5012388;28;20196;-72
2021/12/15 12:11:40;;;;;;;0.00;0.00;;;;;;;;;;5012866;28;20208;-73
2021/12/15 12:14:17;;;;;;;0.00;0.00;;;;;;;;;;5012506;28;20266;-75
2021/12/15 12:16:46;;;;;;;0.00;0.00;;;;;;;;;;4991848;28;20271;-72
2021/12/15 12:19:16;;;;;;;0.00;0.00;;;;;;;;;;4993277;28;20201;-75
2021/12/15 12:21:45;;;;;;;0.00;0.00;;;;;;;;;;4993825;28;20212;-72
2021/12/15 12:24:17;;;;;;;0.00;0.00;;;;;;;;;;4993638;28;20233;-71
2021/12/15 12:26:46;;;;;;;0.00;0.00;;;;;;;;;;4993399;28;20640;-74
2021/12/15 12:29:14;;;;;;;0.00;0.00;;;;;;;;;;4993192;28;20259;-75
2021/12/15 12:31:43;;;;;;;0.00;0.00;;;;;;;;;;5009113;28;20267;-75
2021/12/15 12:34:11;;;;;;;0.00;0.00;;;;;;;;;;5012566;28;20227;-76
2021/12/15 12:36:41;;;;;;;0.00;0.00;;;;;;;;;;5011120;28;20627;-77
2021/12/15 12:39:11;;;;;;;0.00;0.00;;;;;;;;;;5012100;28;20201;-74
2021/12/15 12:41:41;;;;;;;0.00;0.00;;;;;;;;;;5015138;28;20255;-73
2021/12/15 12:44:12;;;;;;;0.00;0.00;;;;;;;;;;5014575;28;20656;-75
2021/12/15 12:46:46;;;;;;;0.00;0.00;;;;;;;;;;5014483;28;20251;-75
2021/12/15 12:49:49;;;;;;;0.00;0.00;;;;;;;;;;5017888;28;20200;-74
2021/12/15 13:00:47;;;;;;;0.00;0.00;;;;;;;;;;4982136;28;20223;-74
2021/12/15 13:03:19;;;;;;;0.00;0.00;;;;;;;;;;5013192;28;20303;-73
2021/12/15 13:05:48;;;;;;;0.00;0.00;;;;;;;;;;5011882;28;20463;-75
2021/12/15 13:08:19;;;;;;;0.00;0.00;;;;;;;;;;5015305;28;20220;-72
2021/12/15 13:11:00;;;;;;;0.00;0.00;;;;;;;;;;5015554;28;20217;-71
2021/12/15 13:13:29;;;;;;;0.00;0.00;;;;;;;;;;5014133;28;20205;-74
2021/12/15 13:15:59;;;;;;;0.00;0.00;;;;;;;;;;5013765;28;20208;-75
2021/12/15 13:18:28;;;;;;;0.00;0.00;;;;;;;;;;5011359;28;20595;-73
2021/12/15 13:20:59;;;;;;;0.00;0.00;;;;;;;;;;5014075;28;20204;-76
2021/12/15 13:23:54;;;;;;;0.00;0.00;;;;;;;;;;5014520;28;20680;-74
2021/12/15 13:29:27;;;;;;;0.00;0.00;;;;;;;;;;5012217;28;20200;-73
2021/12/15 13:31:58;;;;;;;0.00;0.00;;;;;;;;;;5014482;28;20215;-74
2021/12/15 13:34:37;;;;;;;0.00;0.00;;;;;;;;;;5014995;28;20282;-73
2021/12/15 13:37:05;;;;;;;0.00;0.00;;;;;;;;;;5015556;28;20228;-72
2021/12/15 13:39:47;;;;;;;0.00;0.00;;;;;;;;;;5014395;28;20201;-72
2021/12/15 13:42:37;;;;;;;0.00;0.00;;;;;;;;;;5001490;28;20197;-72
2021/12/15 13:45:06;;;;;;;0.00;0.00;;;;;;;;;;5015351;28;20607;-73
2021/12/15 13:47:44;;;;;;;0.00;0.00;;;;;;;;;;5013822;28;20224;-72
2021/12/15 13:50:16;;;;;;;0.00;0.00;;;;;;;;;;4995523;28;20209;-74
2021/12/15 13:52:45;;;;;;;0.00;0.00;;;;;;;;;;5013245;28;20267;-74
2021/12/15 13:55:25;;;;;;;0.00;0.00;;;;;;;;;;4995921;28;20225;-73
2021/12/15 13:58:07;;;;;;;0.00;0.00;;;;;;;;;;4995669;28;20232;-73
2021/12/15 14:00:39;;;;;;;0.00;0.00;;;;;;;;;;5003301;28;20262;-73
2021/12/15 14:03:22;;;;;;;0.00;0.00;;;;;;;;;;5013923;28;20196;-71
2021/12/15 14:05:53;;;;;;;0.00;0.00;;;;;;;;;;5012687;28;20196;-73
2021/12/15 14:08:22;;;;;;;0.00;0.00;;;;;;;;;;5011359;28;20220;-71
2021/12/15 14:11:09;;;;;;;0.00;0.00;;;;;;;;;;5012528;28;20288;-75
2021/12/15 14:13:52;;;;;;;0.00;0.00;;;;;;;;;;5009708;28;20216;-75
2021/12/15 14:16:51;;;;;;;0.00;0.00;;;;;;;;;;5011668;28;20582;-70
2021/12/15 14:19:32;;;;;;;0.00;0.00;;;;;;;;;;5006895;28;20296;-73
2021/12/15 14:22:03;;;;;;;0.00;0.00;;;;;;;;;;5014326;28;20196;-71
2021/12/15 14:24:31;;;;;;;0.00;0.00;;;;;;;;;;5014198;28;20205;-75
2021/12/15 14:27:00;;;;;;;0.00;0.00;;;;;;;;;;5013636;28;20723;-72
2021/12/15 14:29:29;;;;;;;0.00;0.00;;;;;;;;;;5009501;28;20266;-73
2021/12/15 14:31:59;;;;;;;0.00;0.00;;;;;;;;;;5011181;28;20687;-74
2021/12/15 14:34:29;;;;;;;0.00;0.00;;;;;;;;;;5010216;28;20236;-71
2021/12/15 14:37:00;;;;;;;0.00;0.00;;;;;;;;;;5007930;28;20282;-73
2021/12/15 14:39:31;;;;;;;0.00;0.00;;;;;;;;;;5009869;28;20251;-73
2021/12/15 14:42:01;;;;;;;0.00;0.00;;;;;;;;;;5016986;28;20219;-74
2021/12/15 14:44:31;;;;;;;0.00;0.00;;;;;;;;;;5009271;28;20212;-72
2021/12/15 14:47:02;;;;;;;0.00;0.00;;;;;;;;;;5010812;28;20639;-73
2021/12/15 14:49:31;;;;;;;0.00;0.00;;;;;;;;;;5007678;28;20208;-70
2021/12/15 14:52:03;;;;;;;0.00;0.00;;;;;;;;;;5011710;28;20239;-73
2021/12/15 14:54:32;;;;;;;0.00;0.00;;;;;;;;;;5009677;28;20626;-73
2021/12/15 14:57:01;;;;;;;0.00;0.00;;;;;;;;;;5010988;28;20316;-74
2021/12/15 14:59:31;;;;;;;0.00;0.00;;;;;;;;;;5005356;28;20207;-73
2021/12/15 15:02:04;;;;;;;0.00;0.00;;;;;;;;;;5007803;28;20213;-74
2021/12/15 15:04:38;;;;;;;0.00;0.00;;;;;;;;;;5005333;28;20605;-74
2021/12/15 15:07:09;;;;;;;0.00;0.00;;;;;;;;;;5002571;28;20246;-74
2021/12/15 15:09:39;;;;;;;0.00;0.00;;;;;;;;;;5002573;28;20730;-74
2021/12/15 15:12:10;;;;;;;0.00;0.00;;;;;;;;;;5006496;28;20244;-71
2021/12/15 15:14:45;;;;;;;0.00;0.00;;;;;;;;;;5010245;28;20660;-71
2021/12/15 15:17:24;;;;;;;0.00;0.00;;;;;;;;;;5006091;28;20224;-73
2021/12/15 15:19:53;;;;;;;0.00;0.00;;;;;;;;;;5005534;28;20212;-71
2021/12/15 15:22:37;;;;;;;0.00;0.00;;;;;;;;;;5003477;28;20219;-73
2021/12/15 15:25:06;;;;;;;0.00;0.00;;;;;;;;;;5009732;28;20201;-71
2021/12/15 15:30:23;;;;;;;0.00;0.00;;;;;;;;;;5005188;28;20208;-72
2021/12/15 15:32:54;;;;;;;0.00;0.00;;;;;;;;;;5011141;28;20204;-72
2021/12/15 15:35:25;;;;;;;0.00;0.00;;;;;;;;;;5005261;28;20223;-71
2021/12/15 15:37:57;;;;;;;0.00;0.00;;;;;;;;;;5004301;28;20282;-71
2021/12/15 15:40:28;;;;;;;0.00;0.00;;;;;;;;;;5009052;28;20243;-73
2021/12/15 15:43:00;;;;;;;0.00;0.00;;;;;;;;;;5000981;28;20208;-72
2021/12/15 15:45:30;;;;;;;0.00;0.00;;;;;;;;;;4660142;28;9999700;-71
2021/12/15 15:48:14;;;;;;;0.00;0.00;;;;;;;;;;5001260;28;20238;-72
2021/12/15 15:50:44;;;;;;;0.00;0.00;;;;;;;;;;4999581;28;20699;-71
2021/12/15 15:53:28;;;;;;;0.00;0.00;;;;;;;;;;5000935;28;20207;-71
2021/12/15 15:56:04;;;;;;;0.00;0.00;;;;;;;;;;5005147;28;20581;-70
2021/12/15 15:58:33;;;;;;;0.00;0.00;;;;;;;;;;5004931;28;20350;-71
2021/12/15 16:01:07;;;;;;;0.00;0.00;;;;;;;;;;5004856;28;20223;-70
2021/12/15 16:03:52;;;;;;;0.00;0.00;;;;;;;;;;5006064;28;20212;-71
2021/12/15 16:06:23;;;;;;;0.00;0.00;;;;;;;;;;5006648;28;20389;-72
2021/12/15 16:09:09;;;;;;;0.00;0.00;;;;;;;;;;5004675;28;20208;-72
2021/12/15 16:11:39;;;;;;;0.00;0.00;;;;;;;;;;4962237;28;1244091;-71
2021/12/15 16:14:25;;;;;;;0.00;0.00;;;;;;;;;;5002384;28;20258;-71